Home > Products > Valid Products > TAF

000
FTUS46 KHNX 300521
TAFMCE
TAF
KMCE 300521Z 3006/3106 32006KT P6SM SCT250=



000
FTUS46 KHNX 300521
TAFFAT
TAF
KFAT 300521Z 3006/3106 31006KT P6SM SCT200=



000
FTUS46 KHNX 300521
TAFBFL
TAF
KBFL 300521Z 3006/3106 32006KT P6SM SCT250=



000
FTUS46 KHNX 292323
TAFMCE
TAF
KMCE 292323Z 3000/3024 32006KT P6SM SCT250=



000
FTUS46 KHNX 292323
TAFFAT
TAF
KFAT 292323Z 3000/3024 31006KT P6SM BKN200=



000
FTUS46 KHNX 292323
TAFBFL
TAF
KBFL 292323Z 3000/3024 32006KT P6SM SCT250=



000
FTUS46 KHNX 291727
TAFBFL
TAF
KBFL 291727Z 2918/3018 33007KT P6SM SCT250=



000
FTUS46 KHNX 291727
TAFFAT
TAF
KFAT 291727Z 2918/3018 31007KT P6SM SCT250=



000
FTUS46 KHNX 291727
TAFMCE
TAF
KMCE 291727Z 2918/3018 31008KT P6SM SCT250=



000
FTUS46 KHNX 291727
TAFBFL
TAF
KBFL 291727Z 2918/3018 33007KT P6SM SCT250=



000
FTUS46 KHNX 291727
TAFFAT
TAF
KFAT 291727Z 2918/3018 31007KT P6SM SCT250=



000
FTUS46 KHNX 291727
TAFMCE
TAF
KMCE 291727Z 2918/3018 31008KT P6SM SCT250=



000
FTUS46 KHNX 291125
TAFFAT
TAF
KFAT 291125Z 2912/3012 31007KT P6SM SCT250=



000
FTUS46 KHNX 291125
TAFBFL
TAF
KBFL 291125Z 2912/3012 33007KT P6SM SCT250=



000
FTUS46 KHNX 291125
TAFMCE
TAF
KMCE 291125Z 2912/3012 33008KT P6SM SCT250=



000
FTUS46 KHNX 291125
TAFFAT
TAF
KFAT 291125Z 2912/3012 31007KT P6SM SCT250=



000
FTUS46 KHNX 291125
TAFBFL
TAF
KBFL 291125Z 2912/3012 33007KT P6SM SCT250=



000
FTUS46 KHNX 291125
TAFMCE
TAF
KMCE 291125Z 2912/3012 33008KT P6SM SCT250=



000
FTUS46 KHNX 290520
TAFMCE
TAF
KMCE 290520Z 2906/3006 32008KT P6SM SCT250=



000
FTUS46 KHNX 290520
TAFBFL
TAF
KBFL 290520Z 2906/3006 33008KT P6SM SCT250=



000
FTUS46 KHNX 290520
TAFFAT
TAF
KFAT 290520Z 2906/3006 32008KT P6SM SCT250=



000
FTUS46 KHNX 290520
TAFMCE
TAF
KMCE 290520Z 2906/3006 32008KT P6SM SCT250=



000
FTUS46 KHNX 290520
TAFFAT
TAF
KFAT 290520Z 2906/3006 32008KT P6SM SCT250=



000
FTUS46 KHNX 290520
TAFBFL
TAF
KBFL 290520Z 2906/3006 33008KT P6SM SCT250=



000
FTUS46 KHNX 282320
TAFMCE
TAF
KMCE 282320Z 2900/2924 32008KT P6SM SCT250=



000
FTUS46 KHNX 282320
TAFFAT
TAF
KFAT 282320Z 2900/2924 31007KT P6SM SCT250=



000
FTUS46 KHNX 282320
TAFBFL
TAF
KBFL 282320Z 2900/2924 32007KT P6SM SCT250=



000
FTUS46 KHNX 282320
TAFBFL
TAF
KBFL 282320Z 2900/2924 32007KT P6SM SCT250=



000
FTUS46 KHNX 282320
TAFFAT
TAF
KFAT 282320Z 2900/2924 31007KT P6SM SCT250=



000
FTUS46 KHNX 282320
TAFMCE
TAF
KMCE 282320Z 2900/2924 32008KT P6SM SCT250=



000
FTUS46 KHNX 281720
TAFFAT
TAF
KFAT 281720Z 2818/2918 31007KT P6SM SCT250=



000
FTUS46 KHNX 281720
TAFBFL
TAF
KBFL 281720Z 2818/2918 32007KT P6SM SCT250=



000
FTUS46 KHNX 281720
TAFMCE
TAF
KMCE 281720Z 2818/2918 32008KT P6SM SCT250=



000
FTUS46 KHNX 281120
TAFMCE
TAF
KMCE 281120Z 2812/2912 32006KT P6SM SKC=



000
FTUS46 KHNX 281120
TAFFAT
TAF
KFAT 281120Z 2812/2912 31007KT P6SM SKC=



000
FTUS46 KHNX 281120
TAFMCE
TAF
KMCE 281120Z 2812/2912 32006KT P6SM SKC=



000
FTUS46 KHNX 281120
TAFBFL
TAF
KBFL 281120Z 2812/2912 32006KT P6SM SKC=



000
FTUS46 KHNX 281120
TAFBFL
TAF
KBFL 281120Z 2812/2912 32006KT P6SM SKC=



000
FTUS46 KHNX 281120
TAFFAT
TAF
KFAT 281120Z 2812/2912 31007KT P6SM SKC=



000
FTUS46 KHNX 280520
TAFMCE
TAF
KMCE 280520Z 2806/2906 32006KT P6SM SKC=



000
FTUS46 KHNX 280520
TAFFAT
TAF
KFAT 280520Z 2806/2906 31007KT P6SM SKC=



000
FTUS46 KHNX 280520
TAFBFL
TAF
KBFL 280520Z 2806/2906 32006KT P6SM SKC=



000
FTUS46 KHNX 272329
TAFMCE
TAF
KMCE 272329Z 2800/2824 32006KT P6SM SKC=



000
FTUS46 KHNX 272329
TAFFAT
TAF
KFAT 272329Z 2800/2824 31007KT P6SM SKC=



000
FTUS46 KHNX 272329
TAFBFL
TAF
KBFL 272329Z 2800/2824 32006KT P6SM SKC=



000
FTUS46 KHNX 271720
TAFMCE
TAF
KMCE 271720Z 2718/2818 32008KT P6SM SKC=



000
FTUS46 KHNX 271720
TAFBFL
TAF
KBFL 271720Z 2718/2818 30009KT P6SM SKC
     FM280300 34006KT P6SM SKC=



000
FTUS46 KHNX 271720
TAFMCE
TAF
KMCE 271720Z 2718/2818 32008KT P6SM SKC=



000
FTUS46 KHNX 271720
TAFFAT
TAF
KFAT 271720Z 2718/2818 31007KT P6SM SKC=



000
FTUS46 KHNX 271720
TAFFAT
TAF
KFAT 271720Z 2718/2818 31007KT P6SM SKC=



000
FTUS46 KHNX 271720
TAFBFL
TAF
KBFL 271720Z 2718/2818 30009KT P6SM SKC
     FM280300 34006KT P6SM SKC=



000
FTUS46 KHNX 271121
TAFFAT
TAF
KFAT 271121Z 2712/2812 31007KT P6SM SKC=



000
FTUS46 KHNX 271121
TAFMCE
TAF
KMCE 271121Z 2712/2812 32008KT P6SM SKC=



000
FTUS46 KHNX 271121
TAFFAT
TAF
KFAT 271121Z 2712/2812 31007KT P6SM SKC=



000
FTUS46 KHNX 271121
TAFBFL
TAF
KBFL 271121Z 2712/2812 32005KT P6SM SKC
     FM272000 30010KT P6SM SKC
     FM280300 34006KT P6SM SKC=



000
FTUS46 KHNX 271121
TAFBFL
TAF
KBFL 271121Z 2712/2812 32005KT P6SM SKC
     FM272000 30010KT P6SM SKC
     FM280300 34006KT P6SM SKC=



000
FTUS46 KHNX 271121
TAFMCE
TAF
KMCE 271121Z 2712/2812 32008KT P6SM SKC=



    US Dept of Commerce
    National Oceanic and Atmospheric Administration
    National Weather Service
    1325 East West Highway
    Silver Spring, MD 20910
    Page Author: NWS Internet Services Team
Disclaimer
Information Quality
Credits
Glossary
Privacy Policy
Freedom of Information Act (FOIA)
About Us
Career Opportunities